CheckWX is a tool to help pilots better visualize weather data.  It is not intended as a substitute for an official pre-flight weather briefing.

17:29:17 UTC

ESSB TAF
Stockholm-Bromma Airport
Stockholm, Sweden
TAF ESSB 241430Z 2415/2421 24015G25KT CAVOK BECMG 2416/2418 24009KT

Mar-24@
15:00 UTC

Mar-24 @ 15:00 UTC

Mar-24@
16:00 UTC

Mar-24 @ 16:00 UTC

TAF ESSB 241430Z 2415/2421 24015G25KT CAVOK

Expired

Wind
  • 240° at 15 KTS
  • {Gusting to 25 KTS
Conditions
No significant weather
Cloud Levels
  • No significant clouds

Mar-24@
16:00 UTC

Mar-24 @ 16:00 UTC

Mar-24@
21:00 UTC

Mar-24 @ 21:00 UTC

BECMG 2416/2418 24009KT

Becoming

Becoming Conditions expected by Sun, Mar 24, 2019 @ 18:00 UTC

Wind
  • 240° at 9 KTS
Conditions
No significant weather
Cloud Levels
  • No significant clouds